Time;durP1;ratioP1;P1;durP2;ratioP2;P2;SDS_P1;SDS_P2;PMS_P1;PMS_P2;Temp;Humidity;BMP_temperature;BMP_pressure;BME280_temperature;BME280_humidity;BME280_pressure;Samples;Min_cycle;Max_cycle;Signal;HPM_P1;HPM_P2
2022/03/17 00:01:12;;;;;;;26.23;15.10;;;;;;;-145.18;100.00;46580.31;5032144;28;20497;-67
2022/03/17 00:03:38;;;;;;;23.03;14.57;;;;;;;-145.18;100.00;46568.59;5032492;28;20046;-67
2022/03/17 00:06:05;;;;;;;26.73;14.50;;;;;;;-145.18;100.00;46572.50;5033088;28;20113;-67
2022/03/17 00:08:31;;;;;;;20.53;14.33;;;;;;;-145.18;100.00;46568.59;5032512;28;20385;-67
2022/03/17 00:10:56;;;;;;;31.40;14.43;;;;;;;-145.18;100.00;46568.59;5032960;28;20401;-67
2022/03/17 00:13:21;;;;;;;23.57;15.40;;;;;;;-145.18;100.00;46576.41;5032832;28;20045;-67
2022/03/17 00:15:47;;;;;;;24.63;15.37;;;;;;;-145.18;100.00;46570.53;5032484;28;20040;-67
2022/03/17 00:18:12;;;;;;;21.87;15.00;;;;;;;-145.18;100.00;46568.59;5032885;28;20179;-67
2022/03/17 00:20:39;;;;;;;25.83;15.30;;;;;;;-145.18;100.00;46570.53;5032353;28;20120;-67
2022/03/17 00:23:05;;;;;;;22.07;14.87;;;;;;;-145.18;100.00;46570.53;5032572;28;20064;-67
2022/03/17 00:25:32;;;;;;;25.80;15.80;;;;;;;-145.18;100.00;46566.63;5031734;28;20353;-67
2022/03/17 00:27:57;;;;;;;24.50;14.60;;;;;;;-145.18;100.00;46564.69;5032286;28;20267;-67
2022/03/17 00:30:23;;;;;;;30.57;16.80;;;;;;;-145.18;100.00;46570.53;5032372;28;20297;-67
2022/03/17 00:32:48;;;;;;;23.87;15.50;;;;;;;-145.18;100.00;46568.59;5032250;28;20072;-67
2022/03/17 00:37:57;;;;;;;23.67;16.03;;;;;;;-145.18;100.00;46562.72;5032548;28;20080;-67
2022/03/17 00:40:23;;;;;;;24.60;14.87;;;;;;;-145.18;100.00;46570.53;5031836;28;20369;-66
2022/03/17 00:42:49;;;;;;;24.87;15.23;;;;;;;-145.18;100.00;46566.63;5032100;28;20375;-67
2022/03/17 00:45:15;;;;;;;26.40;15.97;;;;;;;-145.18;100.00;46564.69;5032109;28;20541;-67
2022/03/17 00:47:40;;;;;;;24.97;15.47;;;;;;;-145.18;100.00;46568.59;5031796;28;20034;-67
2022/03/17 00:50:07;;;;;;;28.30;15.80;;;;;;;-145.18;100.00;46568.59;5032083;28;20034;-67
2022/03/17 00:52:33;;;;;;;28.17;15.57;;;;;;;-145.18;100.00;46562.72;5032005;28;20558;-67
2022/03/17 00:54:58;;;;;;;24.83;15.20;;;;;;;-145.18;100.00;46564.69;5031968;28;20271;-67
2022/03/17 00:57:24;;;;;;;25.87;17.27;;;;;;;-145.18;100.00;46566.63;5032037;28;20033;-67
2022/03/17 00:59:49;;;;;;;24.60;16.97;;;;;;;-145.18;100.00;46564.69;5031521;28;20029;-67
2022/03/17 01:02:15;;;;;;;27.37;17.90;;;;;;;-145.18;100.00;46572.50;5031899;28;20084;-67
2022/03/17 01:04:41;;;;;;;27.60;16.50;;;;;;;-145.18;100.00;46568.59;5031407;28;20056;-67
2022/03/17 01:07:06;;;;;;;27.53;16.33;;;;;;;-145.18;100.00;46574.44;5032057;28;20034;-67
2022/03/17 01:09:33;;;;;;;29.80;17.47;;;;;;;-145.18;100.00;46568.59;5031575;28;20033;-67
2022/03/17 01:11:58;;;;;;;34.27;18.83;;;;;;;-145.18;100.00;46568.59;5031729;28;20065;-67
2022/03/17 01:14:24;;;;;;;28.93;16.97;;;;;;;-145.18;100.00;46613.50;5030357;28;20349;-66
2022/03/17 01:16:50;;;;;;;30.23;17.33;;;;;;;-145.18;100.00;46570.53;5031588;28;20102;-67
2022/03/17 01:19:19;;;;;;;27.10;17.53;;;;;;;-145.18;100.00;46570.53;5031642;28;20059;-67
2022/03/17 01:21:48;;;;;;;27.83;17.30;;;;;;;-145.18;100.00;46570.53;5031556;28;20296;-67
2022/03/17 01:24:14;;;;;;;30.43;17.47;;;;;;;-145.18;100.00;46574.44;5031361;28;20271;-67
2022/03/17 01:26:40;;;;;;;32.80;18.60;;;;;;;-145.18;100.00;46570.53;5031269;28;20282;-67
2022/03/17 01:29:05;;;;;;;30.97;18.23;;;;;;;-145.18;100.00;46570.53;5031084;28;20025;-67
2022/03/17 01:31:31;;;;;;;28.40;17.57;;;;;;;-145.18;100.00;46566.63;5031561;28;20037;-67
2022/03/17 01:33:58;;;;;;;32.87;17.70;;;;;;;-145.18;100.00;46572.50;5029448;28;20042;-67
2022/03/17 01:36:23;;;;;;;34.40;19.10;;;;;;;-145.18;100.00;46572.50;5031625;28;20267;-67
2022/03/17 01:38:49;;;;;;;32.03;18.00;;;;;;;-145.18;100.00;46568.59;5030675;28;20270;-67
2022/03/17 01:41:14;;;;;;;29.23;17.57;;;;;;;-145.18;100.00;46617.41;5031382;28;20072;-67
2022/03/17 01:43:40;;;;;;;29.33;18.80;;;;;;;-145.18;100.00;46615.47;5030851;28;20556;-67
2022/03/17 01:46:05;;;;;;;32.37;18.50;;;;;;;-145.18;100.00;46613.50;5029857;28;20025;-67
2022/03/17 01:48:30;;;;;;;33.93;19.23;;;;;;;-145.18;100.00;46621.31;5030972;28;20491;-67
2022/03/17 01:50:56;;;;;;;29.73;18.97;;;;;;;-145.18;100.00;46627.19;5030315;28;20060;-67
2022/03/17 01:53:22;;;;;;;32.70;19.73;;;;;;;-145.18;100.00;46631.09;5030517;28;20061;-67
2022/03/17 01:55:48;;;;;;;34.27;20.30;;;;;;;-145.18;100.00;46636.94;5030517;28;20120;-67
2022/03/17 01:58:14;;;;;;;34.37;19.73;;;;;;;-145.18;100.00;46642.81;5030801;28;20374;-67
2022/03/17 02:03:15;;;;;;;38.72;21.35;;;;;;;-145.18;100.00;46654.53;5121851;22;20073;-65
2022/03/17 02:05:40;;;;;;;38.57;22.00;;;;;;;-145.18;100.00;46676.03;5049531;28;20037;-65
2022/03/17 02:08:09;;;;;;;37.87;23.30;;;;;;;-145.18;100.00;46681.88;5048778;28;20108;-65
2022/03/17 02:13:08;;;;;;;39.10;24.60;;;;;;;-145.18;100.00;46697.50;5049980;28;20044;-65
2022/03/17 02:13:20;;;;;;;41.67;24.50;;;;;;;-145.18;100.00;46699.47;5049425;28;20269;-65
2022/03/17 02:15:55;;;;;;;45.90;26.40;;;;;;;-145.18;100.00;46695.56;5069746;28;20028;-65
2022/03/17 02:18:22;;;;;;;41.88;25.75;;;;;;;-145.18;100.00;46685.78;5070260;28;20364;-67
2022/03/17 02:20:49;;;;;;;34.73;20.07;;;;;;;-145.18;100.00;46674.06;5070282;28;20032;-65
2022/03/17 02:26:03;;;;;;;26.43;14.97;;;;;;;-145.18;100.00;46670.16;5070510;28;20355;-65
2022/03/17 02:28:31;;;;;;;32.53;16.13;;;;;;;-145.18;100.00;46662.34;5070410;28;20667;-65
2022/03/17 02:30:58;;;;;;;28.83;17.20;;;;;;;-145.18;100.00;46664.31;5070196;28;20384;-65
2022/03/17 02:33:24;;;;;;;25.63;15.57;;;;;;;-145.18;100.00;46666.25;5070001;28;20338;-65
2022/03/17 02:35:51;;;;;;;22.37;14.90;;;;;;;-145.18;100.00;46660.41;5052317;28;20285;-65
2022/03/17 02:38:17;;;;;;;27.33;18.40;;;;;;;-145.18;100.00;46666.25;5070043;28;20261;-65
2022/03/17 02:40:45;;;;;;;29.53;18.13;;;;;;;-145.18;100.00;46660.41;5070208;28;20794;-65
2022/03/17 02:43:11;;;;;;;34.03;20.17;;;;;;;-145.18;100.00;46662.34;5070059;28;20270;-65
2022/03/17 02:45:37;;;;;;;36.17;19.90;;;;;;;-145.18;100.00;46660.41;5070199;28;20399;-65
2022/03/17 02:48:04;;;;;;;33.70;19.97;;;;;;;-145.18;100.00;46658.44;5069736;28;20729;-65
2022/03/17 02:50:30;;;;;;;43.03;23.30;;;;;;;-145.18;100.00;46660.41;5070123;28;20775;-65
2022/03/17 02:52:56;;;;;;;44.10;23.77;;;;;;;-145.18;100.00;46652.59;5069541;28;20269;-67
2022/03/17 02:55:22;;;;;;;23.40;14.00;;;;;;;-145.18;100.00;46654.53;5070345;28;20320;-65
2022/03/17 02:57:48;;;;;;;13.77;8.23;;;;;;;-145.18;100.00;46658.44;5069609;28;20273;-65
2022/03/17 03:00:14;;;;;;;15.03;7.03;;;;;;;-145.18;100.00;46654.53;5070049;28;20032;-65
2022/03/17 03:02:40;;;;;;;15.33;7.07;;;;;;;-145.18;100.00;46656.50;5069677;28;20292;-65
2022/03/17 03:05:07;;;;;;;10.57;6.23;;;;;;;-145.18;100.00;46662.34;5073927;28;20341;-65
2022/03/17 03:07:32;;;;;;;11.80;5.97;;;;;;;-145.18;100.00;46660.41;5073762;28;20272;-65
2022/03/17 03:09:58;;;;;;;11.47;5.57;;;;;;;-145.18;100.00;46658.44;5073947;28;20273;-65
2022/03/17 03:12:23;;;;;;;13.13;6.57;;;;;;;-145.18;100.00;46658.44;5073288;28;20047;-65
2022/03/17 03:14:49;;;;;;;10.50;6.03;;;;;;;-145.18;100.00;46662.34;5073796;28;20043;-68
2022/03/17 03:17:15;;;;;;;10.53;5.67;;;;;;;-145.18;100.00;46658.44;5073755;28;20028;-65
2022/03/17 03:19:40;;;;;;;12.10;7.13;;;;;;;-145.18;100.00;46652.59;5073883;28;20404;-65
2022/03/17 03:22:06;;;;;;;17.43;8.53;;;;;;;-145.18;100.00;46658.44;5073307;28;20110;-65
2022/03/17 03:24:31;;;;;;;16.03;8.93;;;;;;;-145.18;100.00;46658.44;5073584;28;20037;-65
2022/03/17 03:26:57;;;;;;;16.60;8.63;;;;;;;-145.18;100.00;46658.44;5073414;28;20060;-65
2022/03/17 03:29:22;;;;;;;24.50;11.60;;;;;;;-145.18;100.00;46652.59;5073476;28;20036;-65
2022/03/17 03:31:53;;;;;;;25.37;13.37;;;;;;;-145.18;100.00;46658.44;5055582;28;20245;-65
2022/03/17 03:34:19;;;;;;;38.73;16.50;;;;;;;-145.18;100.00;46656.50;5073102;28;20043;-65
2022/03/17 03:39:30;;;;;;;35.45;16.33;;;;;;;-145.18;100.00;46656.50;5073491;28;20042;-65
2022/03/17 03:41:56;;;;;;;33.93;17.00;;;;;;;-145.18;100.00;46652.59;5072909;28;20127;-65
2022/03/17 03:44:22;;;;;;;34.13;14.93;;;;;;;-145.18;100.00;46648.69;5073279;28;20093;-65
2022/03/17 03:46:47;;;;;;;35.43;16.50;;;;;;;-145.18;100.00;46656.50;5073095;28;20108;-66
2022/03/17 03:49:13;;;;;;;35.57;16.50;;;;;;;-145.18;100.00;46660.41;5072863;28;20033;-65
2022/03/17 03:51:38;;;;;;;30.77;15.20;;;;;;;-145.18;100.00;46654.53;5072906;28;20098;-65
2022/03/17 03:54:13;;;;;;;36.17;16.33;;;;;;;-145.18;100.00;46660.41;5072643;28;20460;-66
2022/03/17 03:56:40;;;;;;;43.60;16.75;;;;;;;-145.18;100.00;46654.53;5073294;28;20059;-65
2022/03/17 03:59:08;;;;;;;29.37;14.83;;;;;;;-145.18;100.00;46656.50;5072470;28;20510;-65
2022/03/17 04:01:35;;;;;;;38.67;16.97;;;;;;;-145.18;100.00;46654.53;5073025;28;20281;-65
2022/03/17 04:04:03;;;;;;;34.07;17.73;;;;;;;-145.18;100.00;46660.41;5072094;28;20293;-65
2022/03/17 04:06:29;;;;;;;31.13;13.97;;;;;;;-145.18;100.00;46660.41;5073214;28;20277;-65
2022/03/17 04:08:54;;;;;;;34.50;15.40;;;;;;;-145.18;100.00;46650.63;5072667;28;20732;-66
2022/03/17 04:11:20;;;;;;;34.60;15.10;;;;;;;-145.18;100.00;46654.53;5072958;28;20300;-65
2022/03/17 04:13:45;;;;;;;32.97;9.70;;;;;;;-145.18;100.00;46658.44;5072061;28;20064;-65
2022/03/17 04:16:11;;;;;;;26.80;8.23;;;;;;;-145.18;100.00;46658.44;5071914;28;20025;-65
2022/03/17 04:18:36;;;;;;;33.13;9.53;;;;;;;-145.18;100.00;46654.53;5072457;28;20032;-65
2022/03/17 04:21:02;;;;;;;22.63;7.27;;;;;;;-145.18;100.00;46652.59;5072791;28;20056;-65
2022/03/17 04:23:27;;;;;;;15.27;5.90;;;;;;;-145.18;100.00;46662.34;5072287;28;20037;-65
2022/03/17 04:25:53;;;;;;;12.70;4.20;;;;;;;-145.18;100.00;46658.44;5072691;28;20040;-68
2022/03/17 04:28:19;;;;;;;19.37;4.10;;;;;;;-145.18;100.00;46656.50;5071838;28;20024;-68
2022/03/17 04:30:45;;;;;;;13.37;3.13;;;;;;;-145.18;100.00;46658.44;5072723;28;20511;-67
2022/03/17 04:33:10;;;;;;;12.67;4.20;;;;;;;-145.18;100.00;46658.44;5072168;28;20048;-68
2022/03/17 04:35:35;;;;;;;28.57;4.87;;;;;;;-145.18;100.00;46656.50;5072480;28;20273;-65
2022/03/17 04:38:01;;;;;;;24.17;5.50;;;;;;;-145.18;100.00;46664.31;5053731;28;20040;-67
2022/03/17 04:40:26;;;;;;;11.20;3.43;;;;;;;-145.18;100.00;46662.34;5072188;28;20675;-67
2022/03/17 04:42:51;;;;;;;14.30;3.77;;;;;;;-145.18;100.00;46660.41;5071760;28;20135;-68
2022/03/17 04:45:17;;;;;;;16.60;3.57;;;;;;;-145.18;100.00;46660.41;5072277;28;20037;-68
2022/03/17 04:47:42;;;;;;;10.37;2.83;;;;;;;-145.18;100.00;46658.44;5071739;28;20040;-67
2022/03/17 04:50:08;;;;;;;13.27;4.17;;;;;;;-145.18;100.00;46666.25;5072151;28;20130;-67
2022/03/17 04:55:17;;;;;;;9.33;2.17;;;;;;;-145.18;100.00;46674.06;5072175;28;20316;-67
2022/03/17 04:57:43;;;;;;;13.03;2.67;;;;;;;-145.18;100.00;46668.22;5071500;28;20277;-67
2022/03/17 05:00:10;;;;;;;11.00;2.40;;;;;;;-145.18;100.00;46679.94;5071735;28;20160;-67
2022/03/17 05:02:35;;;;;;;16.30;3.63;;;;;;;-145.18;100.00;46679.94;5071195;28;20553;-67
2022/03/17 05:05:01;;;;;;;9.80;2.53;;;;;;;-145.18;100.00;46685.78;5071659;28;20269;-67
2022/03/17 05:07:28;;;;;;;15.87;2.83;;;;;;;-145.18;100.00;46685.78;5071509;28;20126;-67
2022/03/17 05:09:53;;;;;;;9.30;2.47;;;;;;;-145.18;100.00;46687.75;5071545;28;20420;-65
2022/03/17 05:12:19;;;;;;;14.87;2.87;;;;;;;-145.18;100.00;46695.56;5071332;28;20297;-67
2022/03/17 05:14:45;;;;;;;12.00;2.33;;;;;;;-145.18;100.00;46693.59;5053900;28;20041;-67
2022/03/17 05:17:10;;;;;;;12.13;2.00;;;;;;;-145.18;100.00;46691.66;5071635;28;20419;-67
2022/03/17 05:19:35;;;;;;;12.70;3.23;;;;;;;-145.18;100.00;46681.88;5070793;28;20485;-68
2022/03/17 05:22:01;;;;;;;10.37;2.13;;;;;;;-145.18;100.00;46687.75;5071414;28;20040;-68
2022/03/17 05:24:26;;;;;;;7.10;1.37;;;;;;;-145.18;100.00;46693.59;5071144;28;20504;-65
2022/03/17 05:26:54;;;;;;;10.37;1.80;;;;;;;-145.18;100.00;46687.75;5064375;28;20028;-68
2022/03/17 05:29:19;;;;;;;9.90;1.60;;;;;;;-145.18;100.00;46691.66;5050844;28;20048;-68
2022/03/17 05:31:45;;;;;;;11.53;2.07;;;;;;;-145.18;100.00;46689.69;5051150;28;20400;-67
2022/03/17 05:34:10;;;;;;;11.87;1.67;;;;;;;-145.18;100.00;46691.66;5050758;28;20037;-67
2022/03/17 05:36:36;;;;;;;11.53;2.20;;;;;;;-145.18;100.00;46691.66;5051330;28;20104;-67
2022/03/17 05:39:02;;;;;;;6.67;1.63;;;;;;;-145.18;100.00;46695.56;5050533;28;20056;-68
2022/03/17 05:41:27;;;;;;;8.33;1.83;;;;;;;-145.18;100.00;46693.59;5050820;28;20021;-65
2022/03/17 05:43:53;;;;;;;14.87;1.87;;;;;;;-145.18;100.00;46695.56;5050342;28;20278;-67
2022/03/17 05:46:19;;;;;;;11.90;1.67;;;;;;;-145.18;100.00;46695.56;5051054;28;20041;-66
2022/03/17 05:48:44;;;;;;;10.20;1.83;;;;;;;-145.18;100.00;46697.50;5049826;28;20033;-66
2022/03/17 05:51:09;;;;;;;11.20;2.13;;;;;;;-145.18;100.00;46693.59;5049494;28;20095;-66
2022/03/17 05:53:35;;;;;;;11.63;2.33;;;;;;;-145.18;100.00;46695.56;5049814;28;20060;-66
2022/03/17 05:56:00;;;;;;;19.00;2.50;;;;;;;-145.18;100.00;46699.47;5050054;28;20129;-66
2022/03/17 05:58:25;;;;;;;15.20;2.43;;;;;;;-145.18;100.00;46693.59;5050046;28;20033;-66
2022/03/17 06:00:51;;;;;;;16.60;1.80;;;;;;;-145.18;100.00;46689.69;5050532;28;20033;-65
2022/03/17 06:03:17;;;;;;;7.93;1.20;;;;;;;-145.18;100.00;46695.56;5032532;28;20646;-66
2022/03/17 06:05:43;;;;;;;15.00;2.00;;;;;;;-145.18;100.00;46695.56;5031721;28;20029;-66
2022/03/17 06:08:08;;;;;;;6.70;1.77;;;;;;;-145.18;100.00;46691.66;5050269;28;20281;-66
2022/03/17 06:10:34;;;;;;;11.97;2.00;;;;;;;-145.18;100.00;46683.84;5050564;28;20033;-66
2022/03/17 06:13:02;;;;;;;9.23;2.03;;;;;;;-145.18;100.00;46689.69;5050023;28;20037;-66
2022/03/17 06:15:28;;;;;;;16.03;2.37;;;;;;;-145.18;100.00;46683.84;5049178;28;20029;-66
2022/03/17 06:17:57;;;;;;;9.20;1.53;;;;;;;-145.18;100.00;46674.06;5050024;28;20270;-66
2022/03/17 06:20:28;;;;;;;8.63;1.30;;;;;;;-145.18;100.00;46666.25;5050785;28;20436;-66
2022/03/17 06:22:55;;;;;;;15.90;2.13;;;;;;;-145.18;100.00;46662.34;5050091;28;20339;-66
2022/03/17 06:25:22;;;;;;;12.17;1.90;;;;;;;-145.18;100.00;46656.50;5032609;28;20392;-66
2022/03/17 06:27:48;;;;;;;14.73;1.63;;;;;;;-145.18;100.00;46666.25;5050049;28;20635;-66
2022/03/17 06:30:17;;;;;;;4.37;0.93;;;;;;;-145.18;100.00;46668.22;5050389;28;20269;-66
2022/03/17 06:32:43;;;;;;;12.27;2.47;;;;;;;-145.18;100.00;46662.34;5049953;28;20315;-66
2022/03/17 06:35:11;;;;;;;14.93;1.77;;;;;;;-145.18;100.00;46672.13;5050012;28;20383;-67
2022/03/17 06:37:39;;;;;;;17.77;1.77;;;;;;;-145.18;100.00;46672.13;5049754;28;20266;-67
2022/03/17 06:40:06;;;;;;;15.90;2.23;;;;;;;-145.18;100.00;46670.16;5049781;28;20305;-67
2022/03/17 06:42:32;;;;;;;8.87;1.40;;;;;;;-145.18;100.00;46666.25;5050120;28;20270;-67
2022/03/17 06:44:58;;;;;;;19.07;1.93;;;;;;;-145.18;100.00;46666.25;5049934;28;20305;-65
2022/03/17 06:47:23;;;;;;;5.43;1.30;;;;;;;-145.18;100.00;46658.44;5050309;28;20021;-65
2022/03/17 06:49:48;;;;;;;8.93;2.13;;;;;;;-145.18;100.00;46660.41;5049545;28;20029;-67
2022/03/17 06:52:14;;;;;;;7.70;1.37;;;;;;;-145.18;100.00;46664.31;5031518;28;20036;-67
2022/03/17 06:54:39;;;;;;;12.57;1.50;;;;;;;-145.18;100.00;46658.44;5049860;28;20664;-65
2022/03/17 06:57:05;;;;;;;12.37;1.70;;;;;;;-145.18;100.00;46660.41;5049901;28;20049;-65
2022/03/17 06:59:30;;;;;;;21.13;2.53;;;;;;;-145.18;100.00;46660.41;5049691;28;20021;-65
2022/03/17 07:01:55;;;;;;;11.53;1.87;;;;;;;-145.18;100.00;46656.50;5049817;28;20058;-65
2022/03/17 07:04:21;;;;;;;7.10;1.90;;;;;;;-145.18;100.00;46650.63;5031664;28;20041;-65
2022/03/17 07:06:46;;;;;;;10.93;1.63;;;;;;;-145.18;100.00;46582.25;5049454;28;20131;-65
2022/03/17 07:09:13;;;;;;;15.07;2.10;;;;;;;-145.18;100.00;46576.41;5049270;28;20025;-65
2022/03/17 07:11:39;;;;;;;10.93;1.47;;;;;;;-145.18;100.00;46562.72;5049751;28;20037;-65
2022/03/17 07:14:04;;;;;;;12.37;1.97;;;;;;;-145.18;100.00;46554.91;5048873;28;20404;-64
2022/03/17 07:16:29;;;;;;;4.70;1.10;;;;;;;-145.18;100.00;46558.81;5048306;28;20508;-67
2022/03/17 07:18:55;;;;;;;9.60;1.40;;;;;;;-145.18;100.00;46560.78;5049131;28;20041;-67
2022/03/17 07:21:20;;;;;;;35.90;2.80;;;;;;;-145.18;100.00;46570.53;5031648;28;20426;-64
2022/03/17 07:23:46;;;;;;;10.53;1.43;;;;;;;-145.18;100.00;46562.72;5047560;28;20029;-64
2022/03/17 07:26:11;;;;;;;10.40;1.47;;;;;;;-145.18;100.00;46574.44;5045831;28;20095;-64
2022/03/17 07:28:37;;;;;;;9.57;1.10;;;;;;;-145.18;100.00;46578.34;5049430;28;20037;-64
2022/03/17 07:31:02;;;;;;;15.83;1.70;;;;;;;-145.18;100.00;46586.16;5046031;28;20060;-64
2022/03/17 07:33:27;;;;;;;12.10;1.23;;;;;;;-145.18;100.00;46592.03;5049164;28;20549;-64
2022/03/17 07:35:53;;;;;;;19.60;2.40;;;;;;;-145.18;100.00;46597.88;5049343;28;20033;-64
2022/03/17 07:38:19;;;;;;;11.13;1.40;;;;;;;-145.18;100.00;46597.88;5049168;28;20405;-67
2022/03/17 07:40:46;;;;;;;8.87;2.10;;;;;;;-145.18;100.00;46607.66;5049930;28;20037;-67
2022/03/17 07:43:12;;;;;;;18.43;1.77;;;;;;;-145.18;100.00;46603.75;5049271;28;20111;-67
2022/03/17 07:45:37;;;;;;;8.60;1.60;;;;;;;-145.18;100.00;46605.69;5049633;28;20374;-67
2022/03/17 07:48:05;;;;;;;15.33;2.77;;;;;;;-145.18;100.00;46597.88;5048905;28;20037;-65
2022/03/17 07:50:31;;;;;;;12.50;1.77;;;;;;;-145.18;100.00;46607.66;5051163;28;20025;-64
2022/03/17 07:52:58;;;;;;;10.37;2.37;;;;;;;-145.18;100.00;46619.38;5052548;28;20278;-64
2022/03/17 07:55:23;;;;;;;7.10;1.20;;;;;;;-145.18;100.00;46601.78;5035640;28;20277;-64
2022/03/17 07:57:49;;;;;;;6.97;1.20;;;;;;;-145.18;100.00;46601.78;5052162;28;20297;-64
2022/03/17 08:00:15;;;;;;;10.30;1.33;;;;;;;-145.18;100.00;46607.66;5052853;28;20052;-64
2022/03/17 08:02:41;;;;;;;14.07;1.40;;;;;;;-145.18;100.00;46605.69;5052200;28;20049;-65
2022/03/17 08:05:08;;;;;;;12.23;1.97;;;;;;;-145.18;100.00;46597.88;5052696;28;20037;-65
2022/03/17 08:07:34;;;;;;;10.97;1.57;;;;;;;-145.18;100.00;46593.97;5053038;28;20685;-67
2022/03/17 08:09:59;;;;;;;17.23;1.97;;;;;;;-145.18;100.00;46597.88;5052489;28;20358;-68
2022/03/17 08:12:26;;;;;;;14.90;1.97;;;;;;;-145.18;100.00;46592.03;5034991;28;20044;-67
2022/03/17 08:14:53;;;;;;;19.63;2.40;;;;;;;-145.18;100.00;46595.94;5052081;28;20029;-67
2022/03/17 08:17:19;;;;;;;9.50;1.27;;;;;;;-145.18;100.00;46605.69;5053370;28;20266;-67
2022/03/17 08:19:44;;;;;;;6.00;1.00;;;;;;;-145.18;100.00;46619.38;5033514;28;20412;-67
2022/03/17 08:22:09;;;;;;;10.73;1.57;;;;;;;-145.18;100.00;46638.91;5052685;28;20111;-65
2022/03/17 08:24:35;;;;;;;4.80;1.63;;;;;;;-145.18;100.00;46654.53;5051983;28;20033;-65
2022/03/17 08:27:02;;;;;;;2.67;0.97;;;;;;;-145.18;100.00;46662.34;5050812;28;20616;-64
2022/03/17 08:29:29;;;;;;;9.17;1.20;;;;;;;-145.18;100.00;46635.00;5052406;28;20044;-65
2022/03/17 08:31:54;;;;;;;15.13;1.83;;;;;;;-145.18;100.00;46640.88;5052442;28;20294;-68
2022/03/17 08:34:20;;;;;;;9.10;1.90;;;;;;;-145.18;100.00;46631.09;5052098;28;20638;-68
2022/03/17 08:36:46;;;;;;;13.60;2.00;;;;;;;-145.18;100.00;46629.13;5052001;28;20037;-64
2022/03/17 08:39:11;;;;;;;10.30;1.30;;;;;;;-145.18;100.00;46646.72;5051939;28;20040;-65
2022/03/17 08:41:37;;;;;;;9.43;1.20;;;;;;;-145.18;100.00;46648.69;5034430;28;20274;-64
2022/03/17 08:44:02;;;;;;;6.57;1.33;;;;;;;-145.18;100.00;46638.91;5051594;28;20106;-64
2022/03/17 08:49:24;;;;;;;8.60;1.40;;;;;;;-145.18;100.00;46650.63;5051788;28;20527;-65
2022/03/17 08:51:52;;;;;;;13.93;1.63;;;;;;;-145.18;100.00;46666.25;5052015;28;20293;-65
2022/03/17 08:54:22;;;;;;;7.97;1.00;;;;;;;-145.18;100.00;46638.91;5051537;28;20270;-67
2022/03/17 08:56:49;;;;;;;9.87;1.20;;;;;;;-145.18;100.00;46648.69;5052142;28;20308;-64
2022/03/17 08:59:14;;;;;;;15.43;1.37;;;;;;;-145.18;100.00;46646.72;5051626;28;20265;-65
2022/03/17 09:01:39;;;;;;;9.13;1.47;;;;;;;-145.18;100.00;46636.94;5051158;28;20280;-64
2022/03/17 09:04:05;;;;;;;13.90;1.33;;;;;;;-145.18;100.00;46640.88;5051081;28;20048;-65
2022/03/17 09:06:30;;;;;;;4.47;1.40;;;;;;;-145.18;100.00;46638.91;5051937;28;20040;-67
2022/03/17 09:08:56;;;;;;;15.23;1.60;;;;;;;-145.18;100.00;46619.38;5050924;28;20063;-67
2022/03/17 09:11:21;;;;;;;7.60;1.13;;;;;;;-145.18;100.00;46631.09;5032542;28;20037;-65
2022/03/17 09:13:49;;;;;;;5.83;1.03;;;;;;;-145.18;100.00;46623.28;5051127;28;20047;-65
2022/03/17 09:16:19;;;;;;;6.60;1.80;;;;;;;-145.18;100.00;46650.63;5051606;28;20064;-64
2022/03/17 09:18:44;;;;;;;6.43;1.40;;;;;;;-145.18;100.00;46633.06;5051215;28;20266;-64
2022/03/17 09:21:10;;;;;;;5.23;0.97;;;;;;;-145.18;100.00;46646.72;5051157;28;20292;-64
2022/03/17 09:23:35;;;;;;;9.87;1.40;;;;;;;-145.18;100.00;46652.59;5051102;28;20100;-64
2022/03/17 09:26:01;;;;;;;9.50;1.57;;;;;;;-145.18;100.00;46642.81;5051296;28;20500;-65
2022/03/17 09:28:27;;;;;;;8.13;1.43;;;;;;;-145.18;100.00;46631.09;5049970;28;20041;-64
2022/03/17 09:30:54;;;;;;;5.30;1.13;;;;;;;-145.18;100.00;46631.09;5051456;28;20041;-65
2022/03/17 09:33:26;;;;;;;7.33;1.87;;;;;;;-145.18;100.00;46636.94;5051293;28;20320;-64
2022/03/17 09:35:53;;;;;;;9.90;1.77;;;;;;;-145.18;100.00;46658.44;5050917;28;20254;-66
2022/03/17 09:38:19;;;;;;;5.43;1.10;;;;;;;-145.18;100.00;46642.81;5050826;28;20369;-67
2022/03/17 09:40:45;;;;;;;15.13;1.93;;;;;;;-145.18;100.00;46631.09;5051147;28;20270;-64
2022/03/17 09:43:28;;;;;;;9.03;1.90;;;;;;;-145.18;100.00;46648.69;5049878;28;20328;-64
2022/03/17 09:45:55;;;;;;;5.97;1.40;;;;;;;-145.18;100.00;46644.78;5051163;28;20273;-64
2022/03/17 09:48:22;;;;;;;10.70;1.93;;;;;;;-145.18;100.00;46658.44;5033099;28;20278;-64
2022/03/17 09:50:54;;;;;;;5.57;1.60;;;;;;;-145.18;100.00;46640.88;5050639;28;20344;-64
2022/03/17 09:53:19;;;;;;;8.30;1.43;;;;;;;-145.18;100.00;46635.00;5050344;28;20266;-65
2022/03/17 09:55:44;;;;;;;7.93;1.60;;;;;;;-145.18;100.00;46676.03;5050610;28;20270;-64
2022/03/17 09:58:10;;;;;;;4.97;1.37;;;;;;;-145.18;100.00;46715.09;5033014;28;20075;-64
2022/03/17 10:00:48;;;;;;;7.97;1.37;;;;;;;-145.18;100.00;46707.28;5050723;28;20507;-65
2022/03/17 10:03:34;;;;;;;10.27;1.97;;;;;;;-145.18;100.00;46715.09;5032044;28;20572;-65
2022/03/17 10:06:05;;;;;;;8.60;1.65;;;;;;;-145.18;100.00;46713.13;5050345;28;21160;-64
2022/03/17 10:08:31;;;;;;;10.83;1.50;;;;;;;-145.18;100.00;46709.22;5050388;28;20496;-65
2022/03/17 10:10:57;;;;;;;7.20;1.80;;;;;;;-145.18;100.00;46713.13;5050303;28;20288;-64
2022/03/17 10:13:25;;;;;;;8.30;1.20;;;;;;;-145.18;100.00;46748.28;5049198;28;20270;-64
2022/03/17 10:16:09;;;;;;;4.90;1.13;;;;;;;-145.18;100.00;46726.81;5050143;28;20499;-64
2022/03/17 10:18:38;;;;;;;12.43;2.73;;;;;;;-145.18;100.00;46746.34;5050142;28;20269;-65
2022/03/17 10:21:06;;;;;;;6.77;1.90;;;;;;;-145.18;100.00;46744.38;5050246;28;20833;-65
2022/03/17 10:23:32;;;;;;;3.07;1.27;;;;;;;-145.18;100.00;46793.22;5050143;28;20273;-64
2022/03/17 10:25:57;;;;;;;13.57;2.27;;;;;;;-145.18;100.00;46719.00;5049893;28;20270;-64
2022/03/17 10:28:28;;;;;;;6.77;1.80;;;;;;;-145.18;100.00;46742.44;5050072;28;20275;-64
2022/03/17 10:31:08;;;;;;;7.70;1.40;;;;;;;-145.18;100.00;46847.91;5050291;28;20366;-64
2022/03/17 10:33:34;;;;;;;9.50;1.60;;;;;;;-145.18;100.00;46859.63;5032556;28;20367;-64
2022/03/17 10:36:19;;;;;;;12.13;1.87;;;;;;;-145.18;100.00;47033.50;5049703;28;20269;-64
2022/03/17 10:38:45;;;;;;;6.20;1.73;;;;;;;-145.18;100.00;46853.78;5049757;28;20029;-64
2022/03/17 10:41:12;;;;;;;6.40;1.60;;;;;;;-145.18;100.00;46898.72;5050252;28;20266;-65
2022/03/17 10:43:39;;;;;;;11.63;1.80;;;;;;;-145.18;100.00;47308.97;5049481;28;20064;-65
2022/03/17 10:46:05;;;;;;;8.13;1.97;;;;;;;-145.18;100.00;47037.41;5049854;28;20278;-64
2022/03/17 10:48:31;;;;;;;6.53;1.90;;;;;;;-145.18;100.00;47207.38;5049742;28;20756;-64
2022/03/17 10:50:56;;;;;;;9.53;2.50;;;;;;;-145.18;100.00;47279.66;5048730;28;20290;-64
2022/03/17 10:53:30;;;;;;;7.17;2.00;;;;;;;-145.18;100.00;47353.88;5050005;28;20033;-65
2022/03/17 10:56:12;;;;;;;8.53;2.47;;;;;;;-145.18;100.00;47332.41;5050094;28;20037;-65
2022/03/17 10:58:45;;;;;;;4.23;1.53;;;;;;;-145.18;100.00;47422.28;5049589;28;20873;-64
2022/03/17 11:01:11;;;;;;;8.93;1.70;;;;;;;-145.18;100.00;47322.63;5049556;28;20269;-65
2022/03/17 11:03:36;;;;;;;7.23;2.00;;;;;;;-145.18;100.00;47066.72;5049388;28;21164;-64
2022/03/17 11:06:06;;;;;;;3.37;1.40;;;;;;;-145.18;100.00;47346.06;5049496;28;20041;-64
2022/03/17 11:08:32;;;;;;;6.43;1.50;;;;;;;-145.18;100.00;47377.34;5049783;28;20119;-64
2022/03/17 11:10:58;;;;;;;8.47;2.23;;;;;;;-145.18;100.00;47314.81;5049558;28;20373;-65
2022/03/17 11:13:26;;;;;;;9.07;1.87;;;;;;;-145.18;100.00;47379.28;5049581;28;20360;-65
2022/03/17 11:16:04;;;;;;;10.00;1.57;;;;;;;-145.18;100.00;47400.78;5049792;28;20078;-64